Time;durP1;ratioP1;P1;durP2;ratioP2;P2;SDS_P1;SDS_P2;PMS_P1;PMS_P2;Temp;Humidity;BMP_temperature;BMP_pressure;BME280_temperature;BME280_humidity;BME280_pressure;Samples;Min_cycle;Max_cycle;Signal;HPM_P1;HPM_P2
2022/07/01 00:00:07;;;;;;;28.48;22.08;;;;;;;20.44;57.38;101356.31;5031513;28;20037;-66
2022/07/01 00:02:40;;;;;;;32.70;22.70;;;;;;;20.50;57.73;101358.38;5037222;28;20111;-65
2022/07/01 00:05:07;;;;;;;28.85;21.60;;;;;;;20.55;57.18;101364.22;5051033;28;20045;-66
2022/07/01 00:07:46;;;;;;;26.60;21.08;;;;;;;20.59;57.55;101362.88;5050910;28;20110;-66
2022/07/01 00:10:13;;;;;;;31.58;22.88;;;;;;;20.63;57.14;101361.53;5051139;28;20053;-67
2022/07/01 00:12:41;;;;;;;29.88;22.75;;;;;;;20.65;57.22;101358.66;5044169;28;20064;-66
2022/07/01 00:15:09;;;;;;;27.00;21.58;;;;;;;20.64;57.26;101360.50;5030781;28;20053;-66
2022/07/01 00:17:36;;;;;;;29.63;22.65;;;;;;;20.64;56.92;101357.78;5031096;28;20116;-67
2022/07/01 00:20:04;;;;;;;30.02;22.73;;;;;;;20.64;57.22;101360.50;5031463;28;20038;-67
2022/07/01 00:22:35;;;;;;;29.10;22.55;;;;;;;20.63;56.99;101365.13;5035446;28;20065;-66
2022/07/01 00:25:02;;;;;;;28.52;22.67;;;;;;;20.60;57.26;101370.03;5051049;28;20048;-67
2022/07/01 00:27:29;;;;;;;27.67;21.98;;;;;;;20.59;57.12;101365.59;5050882;28;20120;-66
2022/07/01 00:29:55;;;;;;;25.48;19.67;;;;;;;20.57;56.78;101354.00;5050868;28;20099;-66
2022/07/01 00:32:26;;;;;;;23.85;19.15;;;;;;;20.54;56.85;101354.31;5047309;28;20100;-66
2022/07/01 00:34:53;;;;;;;22.60;18.33;;;;;;;20.46;56.48;101360.59;5030619;28;20079;-66
2022/07/01 00:37:19;;;;;;;22.60;17.27;;;;;;;20.34;56.73;101363.72;5031013;28;20403;-66
2022/07/01 00:39:46;;;;;;;20.65;16.80;;;;;;;20.25;56.52;101354.59;5030820;28;20116;-66
2022/07/01 00:42:13;;;;;;;18.75;16.50;;;;;;;20.20;56.82;101359.69;5032232;28;20048;-67
2022/07/01 00:44:39;;;;;;;19.42;15.82;;;;;;;20.16;56.78;101353.69;5050805;28;20114;-66
2022/07/01 00:47:10;;;;;;;19.25;15.25;;;;;;;20.16;56.78;101361.00;5050679;28;20041;-66
2022/07/01 00:49:37;;;;;;;18.00;14.70;;;;;;;20.12;56.69;101355.03;5050570;28;20041;-66
2022/07/01 00:52:09;;;;;;;20.00;15.13;;;;;;;20.12;56.74;101363.22;5049259;28;20048;-66
2022/07/01 00:54:37;;;;;;;16.85;13.70;;;;;;;20.12;56.93;101357.75;5030745;28;20076;-66
2022/07/01 00:57:09;;;;;;;16.80;13.50;;;;;;;20.12;56.88;101363.22;5029255;28;20551;-66
2022/07/01 00:59:37;;;;;;;16.17;12.90;;;;;;;20.08;56.64;101370.00;5030726;28;20045;-67
2022/07/01 01:02:06;;;;;;;15.95;12.45;;;;;;;20.06;56.59;101365.69;5031100;28;20370;-65
2022/07/01 01:04:33;;;;;;;15.65;12.65;;;;;;;20.04;56.73;101365.84;5051555;28;20045;-66
2022/07/01 01:07:03;;;;;;;15.85;12.32;;;;;;;20.04;56.64;101387.66;5052137;28;20041;-66
2022/07/01 01:09:30;;;;;;;16.38;12.63;;;;;;;20.04;56.81;101387.66;5052942;28;20067;-66
2022/07/01 01:11:57;;;;;;;16.25;12.57;;;;;;;20.02;56.94;101392.41;5053899;28;20043;-67
2022/07/01 01:14:26;;;;;;;14.90;12.00;;;;;;;19.99;56.81;101398.16;5034695;28;20041;-66
2022/07/01 01:16:53;;;;;;;14.40;11.57;;;;;;;19.89;56.58;101400.97;5033928;28;20038;-66
2022/07/01 01:19:19;;;;;;;20.67;13.02;;;;;;;19.83;56.97;101415.22;5033886;28;20037;-66
2022/07/01 01:21:46;;;;;;;18.42;12.32;;;;;;;19.77;56.79;101421.31;5032762;28;20045;-67
2022/07/01 01:24:14;;;;;;;17.42;13.00;;;;;;;19.70;56.86;101411.16;5051257;28;20037;-66
2022/07/01 01:26:41;;;;;;;16.65;13.52;;;;;;;19.65;56.70;101417.94;5053837;28;20047;-66
2022/07/01 01:29:08;;;;;;;20.45;16.02;;;;;;;19.61;57.31;101429.31;5053508;28;20517;-67
2022/07/01 01:31:35;;;;;;;19.10;15.00;;;;;;;19.58;57.30;101424.16;5053626;28;20037;-66
2022/07/01 01:34:02;;;;;;;20.50;15.07;;;;;;;19.56;57.27;101418.88;5037457;28;20049;-66
2022/07/01 01:36:29;;;;;;;20.35;14.45;;;;;;;19.58;57.48;101416.00;5033863;28;20463;-66
2022/07/01 01:39:05;;;;;;;24.33;15.93;;;;;;;19.60;57.99;101422.13;5033539;28;20046;-66
2022/07/01 01:41:32;;;;;;;17.65;13.77;;;;;;;19.61;57.39;101432.03;5033537;28;20077;-66
2022/07/01 01:43:59;;;;;;;20.83;15.77;;;;;;;19.59;57.52;101424.00;5033987;28;20045;-66
2022/07/01 01:46:28;;;;;;;21.55;15.07;;;;;;;19.61;57.75;101418.41;5033350;28;20419;-68
2022/07/01 01:48:57;;;;;;;21.30;15.77;;;;;;;19.63;57.65;101422.69;5033452;28;20376;-67
2022/07/01 01:51:24;;;;;;;21.42;16.33;;;;;;;19.64;57.90;101426.28;5033453;28;20038;-67
2022/07/01 01:53:56;;;;;;;20.73;15.52;;;;;;;19.61;57.47;101432.03;5047070;28;20056;-67
2022/07/01 01:56:23;;;;;;;18.77;16.05;;;;;;;19.56;57.50;101424.31;5053311;28;20053;-67
2022/07/01 01:58:50;;;;;;;21.70;17.33;;;;;;;19.53;57.91;101421.91;5053292;28;20040;-67
2022/07/01 02:01:18;;;;;;;23.20;16.13;;;;;;;19.53;58.04;101419.16;5053317;28;20036;-67
2022/07/01 02:03:47;;;;;;;22.02;16.05;;;;;;;19.52;58.05;101411.13;5051626;28;20056;-67
2022/07/01 02:06:16;;;;;;;21.27;16.55;;;;;;;19.52;58.03;101419.28;5053159;28;20551;-66
2022/07/01 02:08:42;;;;;;;20.42;16.35;;;;;;;19.50;57.96;101414.00;5053015;28;20045;-67
2022/07/01 02:11:10;;;;;;;18.90;15.25;;;;;;;19.49;57.60;101422.31;5053257;28;20094;-67
2022/07/01 02:13:37;;;;;;;23.67;16.58;;;;;;;19.48;57.91;101424.19;5052110;28;20411;-67
2022/07/01 02:16:04;;;;;;;24.98;15.75;;;;;;;19.50;57.97;101424.91;5051838;28;20047;-66
2022/07/01 02:18:32;;;;;;;24.15;16.25;;;;;;;19.51;57.63;101431.19;5052736;28;20470;-66
2022/07/01 02:20:59;;;;;;;21.33;16.52;;;;;;;19.51;57.90;101433.94;5052704;28;20479;-66
2022/07/01 02:23:25;;;;;;;21.52;16.27;;;;;;;19.51;57.92;101437.50;5043163;28;20414;-67
2022/07/01 02:25:52;;;;;;;19.98;15.50;;;;;;;19.50;57.96;101443.97;5032654;28;20054;-66
2022/07/01 02:28:19;;;;;;;18.42;15.82;;;;;;;19.52;57.76;101465.59;5032703;28;20038;-66
2022/07/01 02:30:45;;;;;;;20.60;14.60;;;;;;;19.53;57.70;101461.91;5032753;28;20486;-66
2022/07/01 02:33:12;;;;;;;21.23;14.90;;;;;;;19.52;57.92;101455.59;5039538;28;20092;-67
2022/07/01 02:35:41;;;;;;;17.88;13.38;;;;;;;19.50;57.61;101448.56;5052059;28;20055;-67
2022/07/01 02:38:12;;;;;;;20.15;13.88;;;;;;;19.48;57.68;101442.41;5052758;28;20040;-66
2022/07/01 02:40:39;;;;;;;16.77;14.00;;;;;;;19.48;57.54;101439.69;5052828;28;20044;-67
2022/07/01 02:43:07;;;;;;;16.70;13.45;;;;;;;19.49;57.81;101435.94;5046068;28;20049;-67
2022/07/01 02:45:34;;;;;;;14.73;12.70;;;;;;;19.52;57.90;101430.19;5032384;28;20050;-66
2022/07/01 02:48:03;;;;;;;15.57;12.88;;;;;;;19.56;58.04;101432.50;5032832;28;20056;-66
2022/07/01 02:50:30;;;;;;;18.80;13.90;;;;;;;19.59;57.99;101436.78;5032100;28;20057;-66
2022/07/01 02:52:58;;;;;;;16.77;13.05;;;;;;;19.62;58.21;101440.06;5032572;28;20034;-67
2022/07/01 02:55:24;;;;;;;17.10;13.02;;;;;;;19.65;57.76;101447.06;5032123;28;20025;-66
2022/07/01 02:57:51;;;;;;;16.00;13.13;;;;;;;19.69;57.98;101448.47;5032160;28;20045;-66
2022/07/01 03:00:19;;;;;;;15.93;12.95;;;;;;;19.67;58.05;101451.34;5032200;28;20051;-66
2022/07/01 03:02:48;;;;;;;16.13;12.68;;;;;;;19.61;57.81;101454.69;5033526;28;20059;-67
2022/07/01 03:05:15;;;;;;;16.80;12.90;;;;;;;19.59;58.11;101462.16;5051945;28;20053;-66
2022/07/01 03:07:42;;;;;;;16.02;12.73;;;;;;;19.61;57.76;101481.06;5052040;28;20041;-67
2022/07/01 03:10:09;;;;;;;19.58;12.35;;;;;;;19.63;57.95;101481.78;5051775;28;20060;-67
2022/07/01 03:12:40;;;;;;;16.08;12.63;;;;;;;19.66;58.19;101482.34;5050432;28;20049;-66
2022/07/01 03:15:12;;;;;;;17.33;12.75;;;;;;;19.67;58.19;101492.22;5030400;28;20049;-67
2022/07/01 03:17:41;;;;;;;18.27;13.27;;;;;;;19.70;58.24;101476.56;5031736;28;20041;-66
2022/07/01 03:20:10;;;;;;;16.65;12.55;;;;;;;19.67;57.67;101486.78;5031844;28;20053;-67
2022/07/01 03:22:39;;;;;;;17.38;13.27;;;;;;;19.66;57.59;101495.09;5032111;28;20051;-67
2022/07/01 03:25:07;;;;;;;23.60;14.30;;;;;;;19.64;57.66;101487.06;5051594;28;20491;-67
2022/07/01 03:27:34;;;;;;;18.38;13.57;;;;;;;19.65;57.76;101477.03;5051299;28;20055;-67
2022/07/01 03:30:01;;;;;;;20.00;13.82;;;;;;;19.65;57.68;101475.16;5051433;28;20045;-68
2022/07/01 03:32:29;;;;;;;18.92;13.88;;;;;;;19.65;57.83;101482.47;5051685;28;20048;-67
2022/07/01 03:34:56;;;;;;;18.60;13.98;;;;;;;19.65;57.98;101488.78;5050376;28;20458;-67
2022/07/01 03:37:23;;;;;;;19.02;13.98;;;;;;;19.61;57.61;101492.84;5051337;28;20056;-67
2022/07/01 03:39:50;;;;;;;18.08;13.82;;;;;;;19.59;57.88;101499.44;5051372;28;20072;-67
2022/07/01 03:42:35;;;;;;;22.23;15.15;;;;;;;19.58;58.08;101500.44;5051210;28;20047;-67
2022/07/01 03:45:01;;;;;;;20.35;14.50;;;;;;;19.58;57.95;101509.47;5051074;28;20045;-67
2022/07/01 03:47:28;;;;;;;19.13;14.40;;;;;;;19.54;57.91;101489.00;5051223;28;20392;-67
2022/07/01 03:49:55;;;;;;;20.08;13.93;;;;;;;19.50;58.05;101490.28;5051301;28;20047;-66
2022/07/01 03:52:26;;;;;;;20.65;13.77;;;;;;;19.46;57.58;101499.75;5050398;28;20041;-66
2022/07/01 03:54:52;;;;;;;18.75;14.18;;;;;;;19.47;58.01;101508.78;5032002;28;20077;-67
2022/07/01 03:57:21;;;;;;;19.20;14.45;;;;;;;19.47;57.66;101508.78;5031160;28;20037;-66
2022/07/01 03:59:47;;;;;;;18.38;12.75;;;;;;;19.44;57.69;101506.38;5031345;28;20055;-66
2022/07/01 04:02:14;;;;;;;19.13;13.38;;;;;;;19.38;57.33;101516.00;5039175;28;20033;-67
2022/07/01 04:04:40;;;;;;;16.77;12.85;;;;;;;19.31;57.64;101521.16;5051084;28;20542;-66
2022/07/01 04:07:09;;;;;;;14.07;11.68;;;;;;;19.27;57.50;101521.59;5051442;28;20045;-66
2022/07/01 04:09:35;;;;;;;17.48;12.73;;;;;;;19.23;57.54;101531.06;5050957;28;20120;-66
2022/07/01 04:12:03;;;;;;;21.27;12.27;;;;;;;19.17;57.65;101526.22;5043903;28;20069;-67
2022/07/01 04:14:29;;;;;;;16.90;11.90;;;;;;;19.10;58.02;101525.09;5031319;28;20057;-66
2022/07/01 04:16:56;;;;;;;20.10;12.93;;;;;;;19.08;58.21;101521.66;5046307;28;20061;-66
2022/07/01 04:19:24;;;;;;;14.68;12.18;;;;;;;19.07;58.35;101520.81;5029734;28;20551;-67
2022/07/01 04:24:36;;;;;;;17.13;12.18;;;;;;;19.11;58.03;101502.31;5051177;28;20514;-65
2022/07/01 04:27:03;;;;;;;17.23;11.48;;;;;;;19.10;57.88;101497.88;5051112;28;20119;-66
2022/07/01 04:29:30;;;;;;;17.88;13.25;;;;;;;19.05;58.39;101496.44;5050639;28;20120;-66
2022/07/01 04:31:57;;;;;;;20.50;12.95;;;;;;;19.03;58.34;101494.88;5040442;28;20049;-66
2022/07/01 04:34:25;;;;;;;17.98;12.93;;;;;;;18.98;58.28;101495.34;5029867;28;20046;-65
2022/07/01 04:36:52;;;;;;;17.80;13.27;;;;;;;18.96;58.38;101500.06;5029320;28;20053;-65
2022/07/01 04:39:18;;;;;;;20.15;13.95;;;;;;;18.96;58.45;101500.06;5031745;28;20069;-66
2022/07/01 04:42:00;;;;;;;20.83;13.65;;;;;;;18.95;58.27;101503.78;5033632;28;20037;-65
2022/07/01 04:44:35;;;;;;;22.35;13.75;;;;;;;18.91;58.43;101510.53;5015003;28;20065;-66
2022/07/01 04:47:08;;;;;;;20.90;13.73;;;;;;;18.89;58.54;101518.00;5014636;28;20046;-66
2022/07/01 04:49:35;;;;;;;19.70;14.07;;;;;;;18.89;58.51;101530.75;5014733;28;20050;-66
2022/07/01 04:52:02;;;;;;;21.13;14.35;;;;;;;18.91;58.24;101534.19;5036710;28;20041;-65
2022/07/01 04:54:29;;;;;;;18.13;13.68;;;;;;;18.87;58.37;101525.44;5054427;28;20053;-65
2022/07/01 04:56:55;;;;;;;20.40;14.77;;;;;;;18.81;58.47;101523.31;5035988;28;20049;-66
2022/07/01 04:59:22;;;;;;;20.95;14.30;;;;;;;18.81;58.45;101531.47;5054750;28;20052;-65
2022/07/01 05:01:49;;;;;;;21.63;13.80;;;;;;;18.79;58.90;101522.59;5045077;28;20034;-65
2022/07/01 05:04:17;;;;;;;20.30;13.95;;;;;;;18.79;58.77;101522.59;5034072;28;20048;-65
2022/07/01 05:06:45;;;;;;;19.15;14.52;;;;;;;18.83;59.07;101526.75;5065943;28;20069;-66
2022/07/01 05:09:12;;;;;;;24.98;14.55;;;;;;;18.89;59.04;101528.88;5032928;28;20053;-66
2022/07/01 05:11:39;;;;;;;21.15;14.05;;;;;;;18.92;59.13;101523.13;5042270;28;20041;-66
2022/07/01 05:14:07;;;;;;;20.20;13.93;;;;;;;18.94;59.33;101536.59;5054124;28;20523;-66
2022/07/01 05:16:34;;;;;;;20.15;14.00;;;;;;;19.00;59.35;101538.75;5053820;28;20574;-66
2022/07/01 05:21:58;;;;;;;19.98;14.35;;;;;;;19.12;59.07;101525.81;5052039;28;20602;-66
2022/07/01 05:24:30;;;;;;;24.70;15.35;;;;;;;19.17;59.69;101523.50;5052346;28;20110;-66
2022/07/01 05:26:57;;;;;;;23.83;14.73;;;;;;;19.24;59.41;101525.47;5049419;28;20034;-65
2022/07/01 05:29:24;;;;;;;25.25;18.15;;;;;;;19.30;59.53;101530.34;5033961;28;20050;-65
2022/07/01 05:31:50;;;;;;;21.98;16.45;;;;;;;19.31;59.22;101521.16;5034659;28;20048;-65
2022/07/01 05:34:18;;;;;;;24.50;17.80;;;;;;;19.34;58.98;101514.59;5048784;28;20045;-65
2022/07/01 05:36:45;;;;;;;24.38;18.17;;;;;;;19.36;59.02;101521.59;5053721;28;20033;-65
2022/07/01 05:39:12;;;;;;;22.85;17.98;;;;;;;19.41;59.07;101520.28;5052025;28;20048;-65
2022/07/01 05:41:38;;;;;;;24.05;17.27;;;;;;;19.41;58.85;101528.47;5051461;28;20060;-66
2022/07/01 05:44:05;;;;;;;24.70;17.40;;;;;;;19.38;58.74;101531.47;5053478;28;20071;-66
2022/07/01 05:46:32;;;;;;;20.10;16.48;;;;;;;19.36;59.00;101547.97;5053417;28;20036;-66
2022/07/01 05:48:59;;;;;;;19.90;15.68;;;;;;;19.39;58.90;101547.69;5053385;28;20367;-66
2022/07/01 05:51:26;;;;;;;22.45;15.70;;;;;;;19.43;59.09;101553.69;5052433;28;20384;-66
2022/07/01 05:53:54;;;;;;;19.50;15.65;;;;;;;19.48;59.03;101548.66;5053214;28;20451;-67
2022/07/01 05:56:20;;;;;;;21.92;15.48;;;;;;;19.51;58.79;101538.31;5052911;28;20049;-67
2022/07/01 05:58:47;;;;;;;18.55;14.82;;;;;;;19.52;59.11;101540.06;5051500;28;20052;-67
2022/07/01 06:01:13;;;;;;;18.30;13.93;;;;;;;19.54;59.13;101531.72;5050551;28;20037;-66
2022/07/01 06:04:05;;;;;;;19.48;13.43;;;;;;;19.54;58.54;101534.47;5051946;28;20431;-66
2022/07/01 06:06:32;;;;;;;17.70;13.40;;;;;;;19.54;58.84;101532.59;5053009;28;20124;-67
2022/07/01 06:08:58;;;;;;;22.05;12.88;;;;;;;19.56;58.77;101536.03;5043729;28;20048;-66
2022/07/01 06:11:25;;;;;;;17.08;11.98;;;;;;;19.58;58.93;101534.00;5033177;28;20045;-66
2022/07/01 06:13:53;;;;;;;17.52;11.40;;;;;;;19.62;58.60;101532.69;5032670;28;20068;-66
2022/07/01 06:16:19;;;;;;;17.25;12.20;;;;;;;19.64;58.95;101541.56;5032335;28;20029;-67
2022/07/01 06:18:46;;;;;;;14.82;10.75;;;;;;;19.71;58.61;101544.56;5029776;28;20121;-66
2022/07/01 06:21:14;;;;;;;14.63;10.02;;;;;;;19.77;58.47;101545.81;5032288;28;20044;-67
2022/07/01 06:23:42;;;;;;;12.77;10.52;;;;;;;19.81;58.87;101539.91;5032129;28;20046;-67
2022/07/01 06:26:09;;;;;;;14.20;10.70;;;;;;;19.87;58.31;101552.06;5032882;28;20053;-66
2022/07/01 06:28:36;;;;;;;15.20;10.05;;;;;;;19.87;58.62;101536.56;5032244;28;20091;-66
2022/07/01 06:31:02;;;;;;;14.13;9.43;;;;;;;19.86;58.23;101540.31;5032413;28;20040;-66
2022/07/01 06:33:30;;;;;;;13.75;10.00;;;;;;;19.87;58.12;101542.03;5032170;28;20041;-66
2022/07/01 06:35:57;;;;;;;14.50;9.73;;;;;;;19.90;57.92;101543.59;5032949;28;20049;-67
2022/07/01 06:38:24;;;;;;;14.60;10.32;;;;;;;19.93;58.11;101551.47;5032165;28;20033;-67
2022/07/01 06:43:36;;;;;;;12.85;9.63;;;;;;;19.96;58.09;101543.84;5030804;28;20112;-66
2022/07/01 06:46:04;;;;;;;13.73;9.57;;;;;;;20.04;58.34;101548.53;5030425;28;20046;-66
2022/07/01 06:48:30;;;;;;;12.10;9.15;;;;;;;20.16;57.78;101551.91;5031987;28;20495;-68
2022/07/01 06:50:57;;;;;;;11.43;9.63;;;;;;;20.23;57.72;101550.28;5042214;28;20045;-68
2022/07/01 06:53:25;;;;;;;14.70;9.02;;;;;;;20.32;57.94;101554.81;5052285;28;20037;-68
2022/07/01 06:55:52;;;;;;;12.45;8.90;;;;;;;20.37;57.46;101557.06;5052032;28;20056;-67
2022/07/01 06:58:18;;;;;;;12.00;7.63;;;;;;;20.41;57.25;101555.78;5052125;28;20040;-67
2022/07/01 07:00:45;;;;;;;12.23;8.15;;;;;;;20.50;57.22;101558.44;5047345;28;20051;-68
2022/07/01 07:03:12;;;;;;;11.77;8.43;;;;;;;20.63;57.37;101561.63;5050639;28;20487;-68
2022/07/01 07:05:38;;;;;;;10.13;8.30;;;;;;;20.76;56.98;101563.94;5051702;28;20061;-68
2022/07/01 07:08:05;;;;;;;10.20;7.85;;;;;;;20.87;56.75;101557.41;5039089;28;20522;-67
2022/07/01 07:10:31;;;;;;;10.48;7.68;;;;;;;21.01;56.57;101553.25;5031959;28;20480;-69
2022/07/01 07:12:59;;;;;;;11.75;6.45;;;;;;;21.11;56.38;101554.88;5031877;28;20034;-67
2022/07/01 07:15:26;;;;;;;12.80;6.80;;;;;;;21.14;55.81;101570.06;5031836;28;20050;-68
2022/07/01 07:17:57;;;;;;;10.30;7.82;;;;;;;21.18;55.51;101568.72;5032685;28;20569;-67
2022/07/01 07:20:25;;;;;;;10.60;6.75;;;;;;;21.25;55.47;101548.84;5030471;28;20444;-67
2022/07/01 07:22:53;;;;;;;10.23;5.53;;;;;;;21.35;55.68;101558.78;5031728;28;20051;-67
2022/07/01 07:25:20;;;;;;;10.27;6.70;;;;;;;21.46;55.15;101570.31;5031349;28;20057;-68
2022/07/01 07:27:47;;;;;;;8.00;5.70;;;;;;;21.54;54.97;101584.00;5031671;28;20496;-68
2022/07/01 07:30:13;;;;;;;10.77;5.82;;;;;;;21.54;54.64;101583.16;5042991;28;20041;-68
2022/07/01 07:32:41;;;;;;;8.57;5.70;;;;;;;21.59;54.80;101591.75;5051688;28;20394;-67
2022/07/01 07:35:08;;;;;;;9.57;6.15;;;;;;;21.61;54.35;101588.88;5051346;28;20318;-67
2022/07/01 07:37:35;;;;;;;8.68;5.55;;;;;;;21.67;54.63;101583.59;5051534;28;20037;-68
2022/07/01 07:40:03;;;;;;;6.68;5.90;;;;;;;21.78;54.59;101583.31;5051265;28;20041;-68
2022/07/01 07:42:34;;;;;;;8.77;6.60;;;;;;;21.86;54.51;101585.22;5037136;28;20076;-69
2022/07/01 07:45:01;;;;;;;7.85;4.88;;;;;;;21.91;54.03;101577.38;5022343;28;20058;-67
2022/07/01 07:47:28;;;;;;;8.75;5.03;;;;;;;21.93;53.49;101586.28;5031237;28;20045;-67
2022/07/01 07:49:54;;;;;;;8.18;4.55;;;;;;;21.92;53.17;101591.91;5031153;28;20076;-67
2022/07/01 07:52:25;;;;;;;8.27;5.10;;;;;;;21.92;52.97;101598.25;5031013;28;20038;-69
2022/07/01 07:54:52;;;;;;;8.43;5.20;;;;;;;21.95;52.58;101595.19;5047206;28;20116;-69
2022/07/01 07:57:19;;;;;;;6.53;5.18;;;;;;;22.06;52.70;101589.44;5051098;28;20041;-68
2022/07/01 07:59:45;;;;;;;7.53;5.03;;;;;;;22.19;52.69;101588.97;5051019;28;20045;-68
2022/07/01 08:02:12;;;;;;;8.40;4.88;;;;;;;22.31;52.19;101589.53;5036628;28;20049;-69
2022/07/01 08:04:39;;;;;;;7.20;4.20;;;;;;;22.39;52.18;101595.03;5030732;28;20416;-69
2022/07/01 08:07:06;;;;;;;7.22;3.78;;;;;;;22.45;51.72;101602.56;5030112;28;20049;-71
2022/07/01 08:09:34;;;;;;;12.25;3.80;;;;;;;22.47;51.34;101598.63;5030941;28;20048;-70
2022/07/01 08:12:02;;;;;;;8.23;3.45;;;;;;;22.47;51.53;101604.13;5029584;28;20443;-71
2022/07/01 08:14:29;;;;;;;7.55;3.67;;;;;;;22.52;51.32;101600.88;5032508;28;20513;-72
2022/07/01 08:16:56;;;;;;;6.82;3.65;;;;;;;22.58;51.24;101605.66;5036043;28;20041;-69
2022/07/01 08:19:23;;;;;;;6.40;4.03;;;;;;;22.67;51.31;101612.88;5054472;28;20056;-72
2022/07/01 08:21:49;;;;;;;7.45;3.80;;;;;;;22.79;51.36;101616.13;5054425;28;20067;-70
2022/07/01 08:24:16;;;;;;;5.60;3.30;;;;;;;22.88;51.03;101614.28;5054773;28;20402;-69
2022/07/01 08:26:42;;;;;;;6.78;4.03;;;;;;;22.96;51.05;101620.63;5055039;28;20047;-72
2022/07/01 08:29:10;;;;;;;6.47;3.40;;;;;;;23.08;50.82;101629.38;5050865;28;20034;-69
2022/07/01 08:31:36;;;;;;;5.90;2.83;;;;;;;23.16;50.42;101626.63;5034705;28;20444;-69
2022/07/01 08:34:04;;;;;;;5.47;3.25;;;;;;;23.27;49.91;101637.25;5033598;28;20095;-71
2022/07/01 08:36:31;;;;;;;3.70;2.40;;;;;;;23.35;49.86;101636.38;5033057;28;20041;-69
2022/07/01 08:38:57;;;;;;;6.45;2.90;;;;;;;23.45;49.07;101635.16;5034598;28;20373;-68
2022/07/01 08:41:24;;;;;;;6.38;2.75;;;;;;;23.57;49.05;101632.09;5040237;28;20048;-70
2022/07/01 08:43:53;;;;;;;4.13;2.00;;;;;;;23.76;49.13;101626.22;5026556;28;20040;-70
2022/07/01 08:46:21;;;;;;;6.55;1.85;;;;;;;23.90;48.70;101625.50;5034275;28;20136;-69
2022/07/01 08:48:48;;;;;;;3.17;1.70;;;;;;;24.05;48.53;101633.84;5034345;28;20140;-69
2022/07/01 08:51:15;;;;;;;4.72;1.70;;;;;;;24.19;47.74;101635.84;5034443;28;20064;-68
2022/07/01 08:53:42;;;;;;;3.85;1.73;;;;;;;24.27;47.57;101640.47;5034557;28;20038;-69
2022/07/01 08:58:54;;;;;;;2.22;1.20;;;;;;;24.40;46.70;101638.84;5034334;28;20091;-69
2022/07/01 09:01:23;;;;;;;4.03;1.60;;;;;;;24.40;46.44;101644.34;5034219;28;20052;-69
2022/07/01 09:03:55;;;;;;;4.70;1.15;;;;;;;24.39;46.27;101645.38;5033013;28;20492;-69
2022/07/01 09:06:26;;;;;;;2.03;1.08;;;;;;;24.43;46.08;101647.75;5034147;28;20095;-69
2022/07/01 09:08:53;;;;;;;6.53;1.40;;;;;;;24.46;46.15;101644.66;5034187;28;20081;-70
2022/07/01 09:11:25;;;;;;;2.35;1.23;;;;;;;24.47;45.69;101643.63;5034184;28;20373;-70
2022/07/01 09:14:09;;;;;;;3.47;1.38;;;;;;;24.52;45.47;101638.44;5033636;28;20415;-69
2022/07/01 09:16:45;;;;;;;2.70;1.27;;;;;;;24.51;45.24;101639.47;5034376;28;20377;-70
2022/07/01 09:19:12;;;;;;;;;;;;;;;24.47;45.44;101635.38;5034192;28;20034;-70
2022/07/01 09:21:39;;;;;;;3.25;1.52;;;;;;;24.53;45.23;101638.28;5033641;28;19933;-71
2022/07/01 09:24:25;;;;;;;2.17;1.25;;;;;;;24.53;44.65;101642.94;5033903;28;20063;-67
2022/07/01 09:26:55;;;;;;;5.13;1.55;;;;;;;24.58;45.03;101646.84;5033546;28;20499;-70
2022/07/01 09:29:26;;;;;;;1.88;1.15;;;;;;;24.66;44.53;101646.78;5034019;28;20403;-70
2022/07/01 09:31:53;;;;;;;2.22;0.70;;;;;;;24.78;44.31;101638.97;5033606;28;20087;-68
2022/07/01 09:34:22;;;;;;;3.08;0.73;;;;;;;24.86;44.12;101638.94;5042938;28;20037;-69
2022/07/01 09:36:53;;;;;;;2.00;0.90;;;;;;;24.97;44.01;101645.88;5053354;28;20049;-69
2022/07/01 09:39:20;;;;;;;2.67;0.90;;;;;;;25.11;43.87;101642.34;5052168;28;20047;-69
2022/07/01 09:42:02;;;;;;;1.95;0.80;;;;;;;25.17;43.60;101654.50;5053369;28;20068;-70
2022/07/01 09:44:28;;;;;;;2.47;0.90;;;;;;;25.16;42.98;101655.56;5051853;28;20057;-69
2022/07/01 09:46:57;;;;;;;5.40;1.38;;;;;;;25.16;43.12;101650.06;5053193;28;20052;-69
2022/07/01 09:49:24;;;;;;;1.60;0.70;;;;;;;25.24;43.10;101658.22;5051988;28;20487;-68
2022/07/01 09:51:51;;;;;;;2.45;0.88;;;;;;;25.30;43.00;101663.88;5051844;28;20483;-70
2022/07/01 09:54:19;;;;;;;2.35;0.80;;;;;;;25.37;43.01;101660.38;5053020;28;20485;-69
2022/07/01 09:56:45;;;;;;;1.50;0.65;;;;;;;25.48;42.55;101658.03;5053068;28;20048;-69
2022/07/01 09:59:16;;;;;;;1.90;0.70;;;;;;;25.53;42.33;101662.97;5053160;28;20041;-70
2022/07/01 10:01:43;;;;;;;2.85;0.80;;;;;;;25.60;42.19;101658.44;5052667;28;20045;-69
2022/07/01 10:04:13;;;;;;;1.77;1.08;;;;;;;25.70;42.13;101666.44;5053201;28;20045;-69
2022/07/01 10:06:52;;;;;;;5.10;0.85;;;;;;;25.77;42.10;101670.13;5051803;28;20037;-69
2022/07/01 10:09:34;;;;;;;4.40;1.27;;;;;;;25.81;41.98;101671.47;5052933;28;20048;-68
2022/07/01 10:12:15;;;;;;;1.90;0.75;;;;;;;25.93;41.97;101670.81;5052643;28;20041;-68
2022/07/01 10:14:42;;;;;;;5.20;1.00;;;;;;;26.07;41.56;101668.28;5052664;28;20051;-69
2022/07/01 10:17:09;;;;;;;2.55;0.93;;;;;;;26.14;41.36;101677.47;5052725;28;20055;-68
2022/07/01 10:19:36;;;;;;;2.65;1.10;;;;;;;26.16;40.44;101681.75;5052664;28;20445;-67
2022/07/01 10:22:41;;;;;;;2.78;1.20;;;;;;;26.12;40.57;101680.44;5052557;28;20069;-68
2022/07/01 10:25:38;;;;;;;3.72;1.30;;;;;;;26.12;40.16;101679.56;5010085;28;20046;-69
2022/07/01 10:28:24;;;;;;;2.40;1.20;;;;;;;26.16;40.09;101676.25;5010299;28;20132;-68
2022/07/01 10:31:01;;;;;;;5.00;1.30;;;;;;;26.18;40.27;101678.81;5044933;28;20055;-68
2022/07/01 10:33:31;;;;;;;2.63;1.25;;;;;;;26.19;40.07;101677.75;5052546;28;20465;-69
2022/07/01 10:36:09;;;;;;;2.35;0.90;;;;;;;26.21;39.61;101675.66;5051937;28;20064;-69
2022/07/01 10:39:03;;;;;;;4.40;1.13;;;;;;;26.23;40.03;101679.09;5039871;28;20060;-68
2022/07/01 10:41:31;;;;;;;4.43;1.20;;;;;;;26.31;39.92;101676.22;5032280;28;20053;-68
2022/07/01 10:44:02;;;;;;;3.45;1.67;;;;;;;26.31;39.39;101670.72;5047525;28;20049;-68
2022/07/01 10:46:50;;;;;;;3.25;1.40;;;;;;;26.31;39.52;101676.22;5032075;28;20038;-68
2022/07/01 10:49:41;;;;;;;2.47;1.20;;;;;;;26.40;39.93;101669.59;5032277;28;20399;-68
2022/07/01 10:52:09;;;;;;;2.83;1.00;;;;;;;26.56;40.20;101680.38;5031125;28;20055;-69
2022/07/01 10:54:45;;;;;;;1.67;1.00;;;;;;;26.69;39.82;101679.69;5031799;28;20060;-68
2022/07/01 10:57:22;;;;;;;2.53;1.00;;;;;;;26.76;39.49;101682.56;5032205;28;20041;-69
2022/07/01 10:59:52;;;;;;;3.65;1.08;;;;;;;26.76;39.18;101686.16;5032345;28;20458;-68
2022/07/01 11:04:56;;;;;;;2.45;1.00;;;;;;;26.68;38.64;101685.41;5031619;28;20557;-67
2022/07/01 11:07:30;;;;;;;1.98;0.90;;;;;;;26.66;38.55;101681.97;5033137;28;20072;-68
2022/07/01 11:09:59;;;;;;;2.65;1.17;;;;;;;26.64;38.37;101686.84;5037879;28;20044;-69
2022/07/01 11:12:28;;;;;;;3.25;1.20;;;;;;;26.70;38.52;101678.63;5052182;28;20468;-69
2022/07/01 11:15:01;;;;;;;3.08;1.30;;;;;;;26.79;38.92;101688.53;5051067;28;20518;-68
2022/07/01 11:17:29;;;;;;;4.30;1.10;;;;;;;26.96;38.74;101678.09;5051531;28;20044;-69
2022/07/01 11:19:58;;;;;;;2.25;1.00;;;;;;;27.13;38.51;101674.06;5051336;28;20445;-70
2022/07/01 11:22:37;;;;;;;4.90;1.08;;;;;;;27.26;38.01;101673.31;5051524;28;20116;-68
2022/07/01 11:25:09;;;;;;;4.28;1.02;;;;;;;27.37;37.65;101671.94;5050915;28;20051;-67
2022/07/01 11:27:37;;;;;;;7.80;1.13;;;;;;;27.46;37.79;101667.97;5051267;28;20051;-68
2022/07/01 11:30:11;;;;;;;2.63;1.00;;;;;;;27.53;37.78;101668.91;5051060;28;20051;-68
2022/07/01 11:32:43;;;;;;;3.15;1.00;;;;;;;27.60;37.39;101672.56;5051222;28;20041;-69
2022/07/01 11:40:58;;;;;;;1.98;0.70;;;;;;;27.72;36.76;101667.38;5050970;28;20051;-69
2022/07/01 11:43:30;;;;;;;3.30;0.95;;;;;;;27.80;36.67;101665.31;5049256;28;20128;-68